Archival Weather

Davison Aaf

Fort Belvoir, Virginia (KDAA)

Report from: Thursday, December 7, 2023 6:55 AM EST
Current time: Wednesday, April 24, 2024 4:12 PM EDT

Current weather – Weather history – Daily summaries
Weather forecast

Temperature-1.1°C (30.0°F)
Dew point-3.9°C (25.0°F)
Winds Calm
Visibility10 mi. (16.1 km)
Clouds Few clouds 9,500 ft. (2,896 m)
Altimeter30.16 in.Hg (1021 mB)
Relative humidity81 %
Density altitude-2,189 ft. (-667 m)
Sea-level pressure102.2 kPa (1022 mB, 30.17 in.Hg)
Max temp last 6 hours-1.1°C (30.0°F)
Min temp last 6 hours-4.1°C (24.6°F)
Remarks Fully automated report
System requires maintenance
Automated weather observing station with precipitation discriminator
Pressure rising
Flight conditions Visual Meteorological Conditions
Raw dataKDAA 071155Z AUTO 00000KT 10SM FEW095 M01/M04 A3016 RMK AO2 SLP217 T10111039 11011 21041 52007 $
An error has occurred. This application may no longer respond until reloaded. Reload 🗙